Time;durP1;ratioP1;P1;durP2;ratioP2;P2;SDS_P1;SDS_P2;PMS_P1;PMS_P2;Temp;Humidity;BMP_temperature;BMP_pressure;BME280_temperature;BME280_humidity;BME280_pressure;Samples;Min_cycle;Max_cycle;Signal;HPM_P1;HPM_P2
2020/12/03 00:00:50;;;;;;;16.38;11.80;;;3.50;82.60;11.10;99349.00;;;;5033391;28;20447;-66
2020/12/03 00:03:30;;;;;;;17.23;11.98;;;3.50;82.60;11.20;99355.00;;;;5050404;28;20184;-67
2020/12/03 00:06:16;;;;;;;18.98;11.73;;;3.50;82.60;11.20;99356.00;;;;5035061;28;20696;-65
2020/12/03 00:08:51;;;;;;;15.90;12.00;;;3.50;82.60;11.00;99351.00;;;;5050263;28;20202;-66
2020/12/03 00:11:18;;;;;;;17.00;12.05;;;3.50;82.60;11.00;99365.00;;;;5034978;28;20279;-66
2020/12/03 00:13:44;;;;;;;17.63;12.10;;;3.50;82.60;11.00;99347.00;;;;5033957;28;20206;-66
2020/12/03 00:16:09;;;;;;;16.77;11.63;;;3.50;82.60;11.10;99323.00;;;;5049713;28;20237;-66
2020/12/03 00:18:36;;;;;;;16.77;12.20;;;3.50;82.60;11.20;99357.00;;;;5052219;28;20699;-66
2020/12/03 00:21:05;;;;;;;14.15;10.40;;;3.50;82.60;11.20;99358.00;;;;5049476;28;20566;-66
2020/12/03 00:23:30;;;;;;;15.25;11.55;;;3.50;82.60;10.90;99362.00;;;;5049778;28;20644;-66
2020/12/03 00:25:56;;;;;;;14.97;11.70;;;3.50;82.60;11.10;99372.00;;;;5069357;28;20232;-67
2020/12/03 00:28:37;;;;;;;17.70;12.50;;;3.50;82.60;11.10;99356.00;;;;5035693;28;20613;-66
2020/12/03 00:31:04;;;;;;;14.93;10.90;;;3.50;82.60;11.10;99362.00;;;;5052911;28;20516;-66
2020/12/03 00:33:29;;;;;;;16.45;11.63;;;3.50;82.60;11.00;99355.00;;;;5051612;28;20181;-66
2020/12/03 00:35:55;;;;;;;17.83;12.63;;;3.50;83.30;11.20;99356.00;;;;5050080;28;20201;-66
2020/12/03 00:38:22;;;;;;;16.60;11.73;;;3.50;82.60;11.00;99360.00;;;;5048930;28;20186;-67
2020/12/03 00:40:47;;;;;;;18.52;12.38;;;3.50;83.40;11.00;99359.00;;;;5047833;28;20202;-66
2020/12/03 00:43:15;;;;;;;15.47;11.27;;;3.50;82.60;11.10;99358.00;;;;5050595;28;20604;-67
2020/12/03 00:45:41;;;;;;;14.85;10.73;;;3.50;82.60;11.20;99350.00;;;;5031834;28;20222;-66
2020/12/03 00:48:07;;;;;;;12.90;8.68;;;3.40;82.50;11.10;99360.00;;;;5048152;28;20545;-66
2020/12/03 00:50:33;;;;;;;14.57;11.03;;;3.50;82.60;11.20;99343.00;;;;5047379;28;20381;-65
2020/12/03 00:52:59;;;;;;;15.68;12.00;;;3.50;82.60;11.10;99339.00;;;;5049344;28;20176;-66
2020/12/03 00:55:25;;;;;;;14.27;10.70;;;3.50;83.30;11.00;99348.00;;;;5050228;28;20269;-66
2020/12/03 00:57:50;;;;;;;16.20;11.10;;;3.40;82.40;11.10;99329.00;;;;5050446;28;20186;-66
2020/12/03 01:00:19;;;;;;;16.70;11.53;;;3.50;82.50;11.10;99328.00;;;;5031211;28;20186;-66
2020/12/03 01:02:44;;;;;;;17.13;12.02;;;3.40;82.40;11.10;99326.00;;;;5049403;28;20178;-66
2020/12/03 01:05:11;;;;;;;15.37;11.07;;;3.40;82.30;11.00;99315.00;;;;5048728;28;20247;-65
2020/12/03 01:07:37;;;;;;;15.93;12.10;;;3.40;82.30;11.10;99308.00;;;;5048977;28;20238;-66
2020/12/03 01:10:05;;;;;;;16.40;11.30;;;3.40;82.40;11.20;99295.00;;;;5048236;28;20198;-67
2020/12/03 01:12:31;;;;;;;18.08;12.13;;;3.40;82.40;11.10;99296.00;;;;5048965;28;20555;-66
2020/12/03 01:14:56;;;;;;;17.10;12.00;;;3.40;82.30;10.90;99305.00;;;;5047887;28;20252;-66
2020/12/03 01:17:22;;;;;;;15.93;11.73;;;3.40;82.30;11.00;99308.00;;;;5048777;28;20570;-66
2020/12/03 01:19:48;;;;;;;17.57;12.67;;;3.40;82.40;11.10;99305.00;;;;5048853;28;20248;-67
2020/12/03 01:22:13;;;;;;;16.00;11.87;;;3.40;82.30;11.20;99305.00;;;;5048769;28;20284;-66
2020/12/03 01:24:41;;;;;;;16.53;12.00;;;3.40;82.30;11.20;99293.00;;;;5048432;28;20650;-66
2020/12/03 01:27:06;;;;;;;18.45;12.98;;;3.40;82.30;11.10;99308.00;;;;5048546;28;20232;-66
2020/12/03 01:29:32;;;;;;;13.93;11.50;;;3.40;82.30;11.10;99308.00;;;;5049109;28;20208;-67
2020/12/03 01:31:58;;;;;;;14.53;10.53;;;3.40;82.30;11.10;99294.00;;;;5048051;28;20194;-66
2020/12/03 01:34:24;;;;;;;18.23;12.17;;;3.40;82.30;11.20;99290.00;;;;5050365;28;20791;-68
2020/12/03 01:36:51;;;;;;;15.57;11.97;;;3.40;82.30;11.00;99282.00;;;;5048552;28;20206;-67
2020/12/03 01:39:17;;;;;;;16.13;11.65;;;3.40;82.30;11.10;99286.00;;;;5048502;28;20407;-66
2020/12/03 01:41:42;;;;;;;16.13;12.30;;;3.40;82.30;10.90;99280.00;;;;5048428;28;20730;-66
2020/12/03 01:44:08;;;;;;;15.67;11.90;;;3.40;82.30;11.30;99280.00;;;;5048035;28;20410;-67
2020/12/03 01:46:34;;;;;;;15.87;11.53;;;3.40;82.30;11.10;99275.00;;;;5047893;28;20574;-67
2020/12/03 01:49:15;;;;;;;16.60;12.17;;;3.40;82.30;11.10;99282.00;;;;5048597;28;20185;-67
2020/12/03 01:51:44;;;;;;;16.70;12.43;;;3.40;82.30;11.10;99265.00;;;;5048408;28;20574;-67
2020/12/03 01:54:13;;;;;;;18.30;11.88;;;3.40;82.30;11.10;99272.00;;;;5048128;28;20186;-66
2020/12/03 01:57:04;;;;;;;16.20;10.77;;;3.40;82.30;11.10;99271.00;;;;5048266;28;20202;-67
2020/12/03 01:59:37;;;;;;;16.80;12.65;;;3.40;82.40;11.00;99260.00;;;;5049383;28;20178;-66
2020/12/03 02:02:04;;;;;;;17.50;11.80;;;3.40;82.40;11.00;99263.00;;;;5048085;28;20268;-66
2020/12/03 02:04:30;;;;;;;17.55;11.98;;;3.40;82.30;11.20;99246.00;;;;5048900;28;20659;-66
2020/12/03 02:07:03;;;;;;;14.50;10.90;;;3.40;82.30;11.20;99254.00;;;;5047636;28;20229;-66
2020/12/03 02:09:28;;;;;;;17.13;11.82;;;3.40;82.30;11.00;99244.00;;;;5048261;28;20185;-67
2020/12/03 02:11:55;;;;;;;14.73;11.23;;;3.40;82.30;10.90;99251.00;;;;5031655;28;20239;-66
2020/12/03 02:14:20;;;;;;;18.60;13.00;;;3.40;82.30;10.90;99247.00;;;;5032028;28;20178;-67
2020/12/03 02:16:47;;;;;;;13.83;10.90;;;3.40;82.30;11.10;99229.00;;;;5031914;28;20217;-67
2020/12/03 02:19:28;;;;;;;16.13;11.95;;;3.40;82.30;11.10;99224.00;;;;5048799;28;20179;-66
2020/12/03 02:21:59;;;;;;;16.23;11.82;;;3.40;82.30;11.10;99231.00;;;;5047934;28;20220;-67
2020/12/03 02:24:39;;;;;;;15.23;10.82;;;3.40;82.30;11.00;99232.00;;;;5048122;28;20221;-67
2020/12/03 02:27:07;;;;;;;16.02;11.75;;;3.40;82.30;10.80;99220.00;;;;5048310;28;20687;-66
2020/12/03 02:29:33;;;;;;;16.15;11.45;;;3.40;82.30;11.00;99214.00;;;;5048380;28;20180;-66
2020/12/03 02:31:58;;;;;;;16.67;11.43;;;3.40;82.30;10.90;99196.00;;;;5048095;28;20712;-66
2020/12/03 02:34:24;;;;;;;15.47;11.60;;;3.40;82.30;11.10;99208.00;;;;5048296;28;20182;-66
2020/12/03 02:36:55;;;;;;;14.23;10.80;;;3.40;82.30;11.10;99196.00;;;;5047536;28;20599;-66
2020/12/03 02:39:22;;;;;;;15.57;11.88;;;3.40;82.30;11.10;99209.00;;;;5047894;28;20178;-66
2020/12/03 02:41:47;;;;;;;14.63;10.65;;;3.40;82.30;11.00;99193.00;;;;5047429;28;20204;-66
2020/12/03 02:44:13;;;;;;;15.73;11.60;;;3.40;82.30;11.10;99206.00;;;;5048221;28;20174;-66
2020/12/03 02:46:40;;;;;;;12.70;10.07;;;3.40;82.30;11.00;99180.00;;;;5047856;28;20221;-67
2020/12/03 02:49:06;;;;;;;15.88;10.98;;;3.40;82.30;11.10;99189.00;;;;5031220;28;20178;-67
2020/12/03 02:51:31;;;;;;;16.35;10.63;;;3.40;82.30;11.10;99178.00;;;;5030927;28;20206;-67
2020/12/03 02:53:57;;;;;;;14.57;10.10;;;3.40;82.30;11.00;99177.00;;;;5048173;28;20240;-68
2020/12/03 02:56:23;;;;;;;13.90;10.97;;;3.40;82.30;11.00;99177.00;;;;5033795;28;20217;-67
2020/12/03 02:58:48;;;;;;;15.73;11.23;;;3.40;82.20;11.10;99166.00;;;;5034773;28;20181;-67
2020/12/03 03:01:14;;;;;;;14.67;10.70;;;3.40;82.30;11.10;99181.00;;;;5051661;28;20214;-66
2020/12/03 03:03:40;;;;;;;14.77;10.30;;;3.40;82.30;10.90;99173.00;;;;5050689;28;20186;-66
2020/12/03 03:06:05;;;;;;;15.00;10.37;;;3.40;82.20;11.20;99171.00;;;;5051473;28;20716;-66
2020/12/03 03:08:32;;;;;;;15.13;11.37;;;3.40;82.30;11.10;99169.00;;;;5051551;28;20225;-67
2020/12/03 03:10:57;;;;;;;14.70;10.77;;;3.40;83.10;11.10;99159.00;;;;5051319;28;20293;-66
2020/12/03 03:13:23;;;;;;;15.77;10.80;;;3.40;82.30;11.00;99150.00;;;;5051175;28;20261;-66
2020/12/03 03:15:49;;;;;;;14.10;11.07;;;3.40;82.30;11.00;99146.00;;;;5052477;28;20516;-66
2020/12/03 03:18:14;;;;;;;13.17;9.83;;;3.40;82.20;10.90;99158.00;;;;5052000;28;20182;-66
2020/12/03 03:20:40;;;;;;;14.83;10.60;;;3.40;82.30;11.00;99157.00;;;;5034613;28;20245;-66
2020/12/03 03:23:06;;;;;;;14.60;10.40;;;3.40;82.30;11.00;99147.00;;;;5051311;28;20235;-66
2020/12/03 03:25:31;;;;;;;14.67;10.63;;;3.40;82.20;10.90;99146.00;;;;5052197;28;20221;-66
2020/12/03 03:27:57;;;;;;;15.60;10.40;;;3.40;82.20;11.10;99143.00;;;;5050678;28;20251;-66
2020/12/03 03:30:23;;;;;;;13.30;9.83;;;3.40;82.20;11.10;99145.00;;;;5050961;28;20174;-66
2020/12/03 03:32:48;;;;;;;15.10;11.30;;;3.40;82.20;11.00;99159.00;;;;5050758;28;20186;-65
2020/12/03 03:35:18;;;;;;;15.50;11.37;;;3.40;82.30;11.00;99149.00;;;;5051030;28;20185;-65
2020/12/03 03:37:45;;;;;;;15.25;11.13;;;3.40;82.20;11.00;99144.00;;;;5050354;28;20182;-66
2020/12/03 03:40:10;;;;;;;14.73;10.63;;;3.40;82.20;11.00;99145.00;;;;5050415;28;20193;-66
2020/12/03 03:42:36;;;;;;;14.33;10.83;;;3.40;82.20;10.90;99133.00;;;;5050439;28;20179;-66
2020/12/03 03:45:04;;;;;;;14.27;10.70;;;3.40;82.20;10.90;99138.00;;;;5050428;28;20255;-68
2020/12/03 03:47:30;;;;;;;14.38;10.10;;;3.40;82.20;11.00;99140.00;;;;5050259;28;20279;-66
2020/12/03 03:49:56;;;;;;;14.57;10.50;;;3.40;83.10;11.10;99148.00;;;;5050997;28;20235;-67
2020/12/03 03:52:21;;;;;;;13.80;10.60;;;3.40;82.30;11.10;99135.00;;;;5050508;28;20465;-66
2020/12/03 03:54:47;;;;;;;13.73;9.90;;;3.40;82.30;11.00;99135.00;;;;5049838;28;20189;-66
2020/12/03 03:57:13;;;;;;;15.10;10.10;;;3.40;82.30;11.00;99127.00;;;;5050602;28;20212;-66
2020/12/03 03:59:38;;;;;;;13.33;10.47;;;3.40;82.30;11.10;99125.00;;;;5050244;28;20182;-67
2020/12/03 04:02:04;;;;;;;14.97;10.13;;;3.40;82.30;11.10;99108.00;;;;5050480;28;20201;-66
2020/12/03 04:04:30;;;;;;;13.57;9.80;;;3.40;83.10;10.80;99124.00;;;;5050304;28;20182;-66
2020/12/03 04:06:55;;;;;;;17.57;10.70;;;3.40;82.30;10.80;99110.00;;;;5050034;28;20739;-66
2020/12/03 04:09:21;;;;;;;13.20;9.37;;;3.40;82.30;10.80;99100.00;;;;5050074;28;20185;-66
2020/12/03 04:11:47;;;;;;;13.60;9.60;;;3.40;83.20;11.00;99108.00;;;;5050542;28;20198;-66
2020/12/03 04:14:13;;;;;;;14.03;9.83;;;3.40;82.30;10.80;99106.00;;;;5050104;28;20178;-66
2020/12/03 04:16:38;;;;;;;13.73;10.30;;;3.40;82.40;10.80;99107.00;;;;5050188;28;20202;-66
2020/12/03 04:19:04;;;;;;;12.97;9.57;;;3.40;82.30;10.80;99107.00;;;;5033689;28;20411;-67
2020/12/03 04:21:30;;;;;;;12.70;9.47;;;3.40;82.30;11.10;99113.00;;;;5051290;28;20277;-66
2020/12/03 04:23:56;;;;;;;16.17;10.10;;;3.40;82.30;11.20;99098.00;;;;5051225;28;20967;-66
2020/12/03 04:26:21;;;;;;;13.83;9.13;;;3.40;82.30;10.90;99104.00;;;;5050306;28;20530;-66
2020/12/03 04:28:47;;;;;;;12.63;8.73;;;3.40;82.40;10.90;99094.00;;;;5050958;28;20194;-67
2020/12/03 04:31:13;;;;;;;14.27;10.03;;;3.40;82.40;11.10;99093.00;;;;5051424;28;20206;-66
2020/12/03 04:33:38;;;;;;;13.70;10.20;;;3.40;82.40;11.00;99091.00;;;;5050178;28;20201;-68
2020/12/03 04:36:05;;;;;;;13.30;9.47;;;3.40;82.40;10.90;99079.00;;;;5049684;28;20233;-66
2020/12/03 04:38:30;;;;;;;13.85;9.02;;;3.40;82.40;10.80;99076.00;;;;5033012;28;20269;-66
2020/12/03 04:40:57;;;;;;;11.50;9.43;;;3.40;82.40;10.90;99080.00;;;;5049124;28;20312;-66
2020/12/03 04:43:37;;;;;;;12.77;9.48;;;3.40;82.40;10.90;99075.00;;;;5049406;28;20455;-66
2020/12/03 04:46:40;;;;;;;10.75;8.20;;;3.40;82.40;11.00;99081.00;;;;5048769;28;20244;-66
2020/12/03 04:49:24;;;;;;;12.75;8.75;;;3.40;82.40;10.90;99077.00;;;;5049069;28;20189;-66
2020/12/03 04:52:26;;;;;;;13.82;9.88;;;3.40;82.50;10.80;99076.00;;;;5050610;28;20206;-66
2020/12/03 04:55:17;;;;;;;10.88;8.48;;;3.40;82.50;10.90;99069.00;;;;5048573;28;20190;-66
2020/12/03 04:58:21;;;;;;;11.35;8.40;;;3.40;82.50;10.80;99061.00;;;;5049377;28;20272;-66
2020/12/03 05:01:03;;;;;;;11.15;8.25;;;3.40;82.50;11.00;99058.00;;;;5048717;28;20232;-66
2020/12/03 05:03:58;;;;;;;14.20;9.88;;;3.40;82.50;10.80;99054.00;;;;5049445;28;20193;-67
2020/12/03 05:06:54;;;;;;;12.20;9.00;;;3.40;82.50;11.10;99057.00;;;;5049024;28;20222;-66
2020/12/03 05:10:10;;;;;;;12.90;9.48;;;3.40;82.50;10.90;99053.00;;;;5049436;28;20178;-67
2020/12/03 05:12:40;;;;;;;14.38;9.38;;;3.40;82.50;10.80;99050.00;;;;4971806;28;20193;-66
2020/12/03 05:15:24;;;;;;;12.18;8.43;;;3.40;83.30;10.90;99051.00;;;;5005382;28;20472;-67
2020/12/03 05:18:35;;;;;;;13.35;9.05;;;3.40;82.60;10.80;99059.00;;;;5048134;28;20281;-67
2020/12/03 05:21:04;;;;;;;12.13;8.93;;;3.40;82.50;11.00;99062.00;;;;5048799;28;20210;-66
2020/12/03 05:23:38;;;;;;;12.13;8.18;;;3.40;82.50;11.00;99056.00;;;;5049077;28;20178;-67
2020/12/03 05:26:17;;;;;;;10.88;8.13;;;3.40;82.50;11.00;99053.00;;;;5047912;28;20240;-67
2020/12/03 05:28:57;;;;;;;11.50;8.15;;;3.40;82.60;11.00;99061.00;;;;5032379;28;20688;-67
2020/12/03 05:31:41;;;;;;;12.40;8.70;;;3.40;82.60;10.80;99064.00;;;;5048180;28;20198;-66
2020/12/03 05:34:13;;;;;;;12.30;7.78;;;3.40;82.60;10.90;99067.00;;;;5032999;28;20204;-66
2020/12/03 05:37:01;;;;;;;11.93;9.07;;;3.40;82.60;10.90;99065.00;;;;5049257;28;20202;-67
2020/12/03 05:39:50;;;;;;;14.40;9.60;;;3.40;82.60;10.90;99070.00;;;;5048294;28;20194;-67
2020/12/03 05:42:28;;;;;;;12.00;8.35;;;3.40;82.60;10.70;99078.00;;;;5049158;28;20202;-67
2020/12/03 05:44:59;;;;;;;11.25;8.30;;;3.40;82.60;10.90;99077.00;;;;5048460;28;20193;-67
2020/12/03 05:47:28;;;;;;;11.02;7.70;;;3.40;82.60;10.90;99074.00;;;;5049549;28;20200;-66
2020/12/03 05:50:16;;;;;;;12.05;8.65;;;3.40;82.60;11.00;99077.00;;;;5048848;28;20190;-67
2020/12/03 05:53:00;;;;;;;14.27;9.00;;;3.40;82.60;10.70;99091.00;;;;5048565;28;20178;-67
2020/12/03 05:55:26;;;;;;;11.25;8.65;;;3.40;82.60;10.90;99103.00;;;;5048724;28;20265;-66
2020/12/03 05:57:52;;;;;;;12.43;8.85;;;3.40;82.60;11.10;99098.00;;;;5048803;28;20236;-67
2020/12/03 06:00:25;;;;;;;10.63;7.87;;;3.40;82.60;10.90;99094.00;;;;5048064;28;20648;-66
2020/12/03 06:03:38;;;;;;;11.35;7.80;;;3.40;82.60;10.90;99097.00;;;;5048823;28;20210;-66
2020/12/03 06:07:00;;;;;;;11.10;8.00;;;3.40;82.70;11.00;99114.00;;;;5049217;28;20297;-67
2020/12/03 06:09:49;;;;;;;11.02;7.80;;;3.40;82.70;10.90;99112.00;;;;5049768;28;20734;-67
2020/12/03 06:12:50;;;;;;;10.82;7.72;;;3.40;82.70;10.70;99110.00;;;;5047970;28;20311;-67
2020/12/03 06:15:34;;;;;;;13.00;8.80;;;3.40;82.70;11.00;99111.00;;;;5048137;28;20284;-67
2020/12/03 06:18:15;;;;;;;11.88;7.78;;;3.40;82.70;10.90;99104.00;;;;5048277;28;20186;-67
2020/12/03 06:21:44;;;;;;;12.27;8.55;;;3.40;82.70;10.70;99101.00;;;;5049395;28;20224;-67
2020/12/03 06:24:18;;;;;;;10.00;7.43;;;3.40;82.70;10.60;99104.00;;;;5046699;28;20612;-67
2020/12/03 06:27:13;;;;;;;10.60;8.00;;;3.40;82.80;10.70;99113.00;;;;5048909;28;20286;-67
2020/12/03 06:30:27;;;;;;;14.85;8.82;;;3.40;82.70;10.60;99112.00;;;;5035058;28;20612;-67
2020/12/03 06:33:14;;;;;;;10.82;7.55;;;3.40;82.70;10.60;99109.00;;;;5052642;28;20185;-67
2020/12/03 06:35:43;;;;;;;11.50;7.88;;;3.40;82.80;10.60;99105.00;;;;5052771;28;20198;-67
2020/12/03 06:38:27;;;;;;;10.30;7.80;;;3.40;82.70;10.60;99109.00;;;;5035583;28;20240;-68
2020/12/03 06:40:59;;;;;;;10.52;8.60;;;3.40;82.80;10.70;99103.00;;;;5052845;28;20197;-67
2020/12/03 06:43:32;;;;;;;11.77;8.38;;;3.40;82.70;10.70;99125.00;;;;5051977;28;20179;-68
2020/12/03 06:46:45;;;;;;;12.68;8.60;;;3.40;82.80;10.80;99119.00;;;;5051935;28;20228;-68
2020/12/03 06:49:32;;;;;;;11.55;7.38;;;3.40;82.80;10.80;99122.00;;;;5039688;28;20202;-68
2020/12/03 06:52:37;;;;;;;10.82;8.32;;;3.40;82.80;10.90;99132.00;;;;5051581;28;20220;-67
2020/12/03 06:55:49;;;;;;;10.80;7.78;;;3.40;82.80;10.90;99128.00;;;;5051896;28;20178;-68
2020/12/03 06:58:52;;;;;;;9.85;7.00;;;3.40;82.80;10.90;99130.00;;;;5053111;28;20186;-68
2020/12/03 07:02:11;;;;;;;11.63;8.15;;;3.40;82.80;10.90;99133.00;;;;5053082;28;20209;-68
2020/12/03 07:04:55;;;;;;;11.30;7.63;;;3.40;82.80;10.70;99132.00;;;;5053142;28;20193;-67
2020/12/03 07:07:20;;;;;;;10.18;8.00;;;3.40;82.80;10.70;99135.00;;;;5052717;28;20232;-68
2020/12/03 07:10:32;;;;;;;9.47;7.27;;;3.40;82.80;10.80;99139.00;;;;5052517;28;20186;-68
2020/12/03 07:13:54;;;;;;;9.05;7.00;;;3.40;82.80;10.70;99147.00;;;;5011606;28;20194;-68
2020/12/03 07:17:13;;;;;;;9.32;7.45;;;3.40;82.80;10.70;99152.00;;;;5051181;28;20799;-68
2020/12/03 07:20:21;;;;;;;11.07;7.82;;;3.40;82.80;10.60;99155.00;;;;5025720;28;20285;-68
2020/12/03 07:22:55;;;;;;;11.25;8.02;;;3.40;82.80;10.70;99152.00;;;;5050442;28;20188;-67
2020/12/03 07:25:20;;;;;;;12.13;8.05;;;3.40;83.70;10.70;99140.00;;;;5051257;28;20209;-67
2020/12/03 07:28:13;;;;;;;11.23;7.33;;;3.40;82.80;10.70;99144.00;;;;5050898;28;20269;-67
2020/12/03 07:30:50;;;;;;;9.32;6.45;;;3.40;82.80;10.80;99148.00;;;;5052308;28;20198;-68
2020/12/03 07:33:36;;;;;;;10.40;7.70;;;3.40;82.80;10.70;99131.00;;;;5050961;28;20178;-67
2020/12/03 07:36:17;;;;;;;9.90;7.28;;;3.40;82.80;10.50;99135.00;;;;5035492;28;20545;-68
2020/12/03 07:38:44;;;;;;;10.98;8.23;;;3.40;82.90;10.80;99136.00;;;;5051976;28;20185;-68
2020/12/03 07:41:20;;;;;;;10.85;7.75;;;3.40;82.90;10.80;99141.00;;;;5049828;28;20190;-68
2020/12/03 07:43:46;;;;;;;11.20;7.55;;;3.40;82.90;10.80;99140.00;;;;5050284;28;20217;-67
2020/12/03 07:46:33;;;;;;;10.80;7.83;;;3.40;82.80;10.70;99143.00;;;;5034228;28;20647;-67
2020/12/03 07:49:00;;;;;;;13.57;8.20;;;3.40;82.80;10.70;99147.00;;;;5056712;28;20678;-67
2020/12/03 07:51:26;;;;;;;9.98;6.97;;;3.40;82.80;10.60;99142.00;;;;5066879;28;20221;-68
2020/12/03 07:54:17;;;;;;;11.20;7.70;;;3.40;82.80;10.80;99147.00;;;;5068945;28;20574;-67
2020/12/03 07:56:46;;;;;;;11.93;7.95;;;3.40;82.80;10.70;99141.00;;;;5049428;28;20209;-67
2020/12/03 07:59:24;;;;;;;10.60;7.93;;;3.40;82.80;10.70;99142.00;;;;5049515;28;20182;-67
2020/12/03 08:01:56;;;;;;;9.52;7.13;;;3.40;82.90;10.90;99131.00;;;;5050385;28;20202;-67
2020/12/03 08:04:36;;;;;;;10.88;8.25;;;3.40;82.90;10.80;99129.00;;;;5049805;28;20175;-67
2020/12/03 08:07:04;;;;;;;11.82;8.18;;;3.40;82.90;10.80;99123.00;;;;5058949;28;20711;-67
2020/12/03 08:09:40;;;;;;;10.63;8.07;;;3.40;82.90;10.80;99124.00;;;;5051396;28;20265;-68
2020/12/03 08:12:22;;;;;;;10.38;7.38;;;3.40;82.90;10.70;99126.00;;;;5049598;28;20206;-67
2020/12/03 08:14:49;;;;;;;10.07;7.38;;;3.40;82.80;10.70;99123.00;;;;5049494;28;20208;-67
2020/12/03 08:17:18;;;;;;;9.73;7.15;;;3.40;82.80;10.70;99121.00;;;;5032495;28;20272;-67
2020/12/03 08:19:45;;;;;;;9.80;7.13;;;3.40;82.80;10.70;99110.00;;;;5050517;28;20265;-67
2020/12/03 08:22:24;;;;;;;11.93;7.57;;;3.40;82.80;10.60;99109.00;;;;5031867;28;20210;-67
2020/12/03 08:24:50;;;;;;;10.73;7.38;;;3.40;82.90;10.50;99108.00;;;;5049636;28;20184;-67
2020/12/03 08:27:15;;;;;;;11.70;7.10;;;3.40;82.90;10.60;99100.00;;;;5047377;28;20240;-67
2020/12/03 08:29:42;;;;;;;9.30;6.70;;;3.40;83.00;10.70;99102.00;;;;5050894;28;20186;-67
2020/12/03 08:32:07;;;;;;;11.60;7.32;;;3.40;82.90;10.70;99094.00;;;;5050049;28;20198;-67
2020/12/03 08:34:41;;;;;;;11.40;7.80;;;3.50;83.10;10.70;99102.00;;;;5048442;28;20205;-67
2020/12/03 08:37:23;;;;;;;10.02;6.82;;;3.40;82.90;10.80;99096.00;;;;5048470;28;20456;-67
2020/12/03 08:39:54;;;;;;;10.98;7.13;;;3.50;83.10;10.70;99112.00;;;;5049221;28;20625;-67
2020/12/03 08:42:20;;;;;;;11.02;7.55;;;3.50;83.10;10.70;99099.00;;;;5047876;28;20202;-67
2020/12/03 08:44:46;;;;;;;9.60;6.60;;;3.50;83.10;10.80;99101.00;;;;5067930;28;20238;-67
2020/12/03 08:47:40;;;;;;;9.57;7.50;;;3.50;83.10;10.80;99100.00;;;;5051777;28;20500;-67
2020/12/03 08:50:13;;;;;;;13.52;7.55;;;3.50;83.80;10.80;99096.00;;;;5052645;28;20268;-68
2020/12/03 08:52:39;;;;;;;11.30;7.65;;;3.50;83.00;10.80;99106.00;;;;5051869;28;20568;-68
2020/12/03 08:55:07;;;;;;;10.50;7.20;;;3.50;83.00;11.00;99104.00;;;;5052028;28;20169;-67
2020/12/03 08:57:37;;;;;;;10.35;7.28;;;3.50;83.10;11.00;99096.00;;;;5035133;28;20450;-68
2020/12/03 09:00:05;;;;;;;9.70;6.97;;;3.40;82.90;11.10;99101.00;;;;5052851;28;20182;-67
2020/12/03 09:02:31;;;;;;;10.85;7.75;;;3.50;83.00;11.00;99104.00;;;;5051849;28;20573;-68
2020/12/03 09:04:58;;;;;;;12.03;7.63;;;3.50;83.00;10.80;99103.00;;;;5051329;28;20189;-67
2020/12/03 09:07:27;;;;;;;11.20;7.88;;;3.50;83.00;11.10;99096.00;;;;5034564;28;20445;-67
2020/12/03 09:09:52;;;;;;;11.15;7.90;;;3.50;83.00;10.90;99105.00;;;;5068182;28;20208;-67
2020/12/03 09:12:28;;;;;;;8.73;6.50;;;3.50;83.00;10.90;99087.00;;;;5051625;28;20248;-68
2020/12/03 09:14:55;;;;;;;9.45;6.53;;;3.50;83.10;11.10;99083.00;;;;5068612;28;20668;-68
2020/12/03 09:17:22;;;;;;;10.85;7.82;;;3.50;83.00;11.00;99080.00;;;;5051860;28;20276;-68
2020/12/03 09:19:48;;;;;;;9.70;6.93;;;3.50;83.00;11.10;99088.00;;;;5052155;28;20181;-67
2020/12/03 09:22:14;;;;;;;9.90;7.00;;;3.50;83.00;10.80;99090.00;;;;5051888;28;20694;-67
2020/12/03 09:24:39;;;;;;;8.43;6.20;;;3.50;83.80;10.90;99078.00;;;;5052010;28;20235;-67
2020/12/03 09:27:06;;;;;;;11.00;6.97;;;3.50;83.00;11.00;99084.00;;;;5052103;28;20457;-67
2020/12/03 09:29:32;;;;;;;10.95;6.80;;;3.50;83.00;11.00;99090.00;;;;5051872;28;20825;-68
2020/12/03 09:32:04;;;;;;;9.63;7.07;;;3.50;83.00;11.00;99082.00;;;;5068324;28;20205;-68
2020/12/03 09:34:33;;;;;;;8.63;6.40;;;3.50;83.00;10.90;99067.00;;;;5068847;28;20186;-68
2020/12/03 09:36:59;;;;;;;10.88;6.82;;;3.50;82.90;10.80;99058.00;;;;5051870;28;20216;-67
2020/12/03 09:39:26;;;;;;;8.63;6.30;;;3.50;82.90;11.10;99072.00;;;;5035277;28;20181;-68
2020/12/03 09:41:52;;;;;;;9.00;6.80;;;3.50;83.00;10.90;99079.00;;;;5052028;28;20233;-67
2020/12/03 09:44:17;;;;;;;9.10;6.50;;;3.50;83.00;11.00;99072.00;;;;5068078;28;20247;-68
2020/12/03 09:46:45;;;;;;;9.57;7.00;;;3.50;83.00;11.10;99072.00;;;;5051901;28;20828;-67
2020/12/03 09:49:11;;;;;;;10.43;7.60;;;3.50;83.10;11.10;99057.00;;;;5052416;28;20636;-67
2020/12/03 09:51:37;;;;;;;11.05;6.50;;;3.50;83.90;11.10;99055.00;;;;5051484;28;20597;-67
2020/12/03 09:54:03;;;;;;;8.90;6.47;;;3.50;83.10;11.00;99057.00;;;;5052068;28;20184;-67
2020/12/03 09:56:36;;;;;;;10.17;6.90;;;3.50;83.10;11.10;99051.00;;;;5051425;28;20204;-67
2020/12/03 09:59:02;;;;;;;10.50;6.43;;;3.50;83.10;11.00;99038.00;;;;5051742;28;20826;-67
2020/12/03 10:01:59;;;;;;;9.38;6.60;;;3.50;83.00;11.10;99032.00;;;;5067471;28;20201;-67
2020/12/03 10:05:14;;;;;;;9.13;6.60;;;3.50;83.10;11.20;99038.00;;;;5068010;28;20182;-67
2020/12/03 10:07:51;;;;;;;9.60;5.75;;;3.50;83.00;11.10;99047.00;;;;5072613;28;20259;-67
2020/12/03 10:10:43;;;;;;;9.52;6.05;;;3.50;83.00;11.00;99044.00;;;;5072132;28;20184;-67
2020/12/03 10:13:35;;;;;;;9.57;6.95;;;3.50;83.00;11.00;99040.00;;;;5071563;28;20218;-67
2020/12/03 10:16:11;;;;;;;11.57;6.50;;;3.50;83.00;11.10;99023.00;;;;5045133;28;20211;-67
2020/12/03 10:18:50;;;;;;;9.00;6.65;;;3.50;83.00;11.10;99016.00;;;;5038505;28;20188;-67
2020/12/03 10:21:21;;;;;;;8.00;6.43;;;3.50;83.00;11.10;99017.00;;;;5073806;28;20207;-67
2020/12/03 10:24:14;;;;;;;9.73;6.53;;;3.50;83.00;11.10;99008.00;;;;5071856;28;20189;-67
2020/12/03 10:27:02;;;;;;;9.63;6.75;;;3.60;83.00;10.70;99007.00;;;;5072721;28;20216;-67
2020/12/03 10:29:31;;;;;;;7.93;6.15;;;3.60;83.00;10.80;98999.00;;;;5064415;28;20185;-67
2020/12/03 10:32:07;;;;;;;9.68;6.45;;;3.60;83.10;10.90;99002.00;;;;5053788;28;20210;-67
2020/12/03 10:34:37;;;;;;;10.10;6.65;;;3.60;83.10;11.10;98993.00;;;;5035058;28;20210;-67
2020/12/03 10:37:07;;;;;;;8.90;6.60;;;3.60;83.10;10.90;98984.00;;;;5038331;28;20223;-67
2020/12/03 10:39:46;;;;;;;10.15;7.28;;;3.60;83.10;10.80;98982.00;;;;5054204;28;20185;-67
2020/12/03 10:42:12;;;;;;;8.68;6.15;;;3.60;83.00;10.80;98985.00;;;;5055769;28;20280;-67
2020/12/03 10:44:40;;;;;;;8.75;6.15;;;3.60;83.00;10.70;98985.00;;;;5053271;28;20599;-67
2020/12/03 10:47:06;;;;;;;9.50;6.57;;;3.60;83.00;10.90;98977.00;;;;5050135;28;20217;-67
2020/12/03 10:49:34;;;;;;;9.33;6.50;;;3.60;83.90;11.00;98978.00;;;;5050196;28;20174;-67
2020/12/03 10:52:02;;;;;;;8.43;6.40;;;3.60;83.10;11.00;98970.00;;;;5051049;28;20198;-67
2020/12/03 10:54:27;;;;;;;9.48;6.70;;;3.60;83.10;10.90;98955.00;;;;5050484;28;20177;-67
2020/12/03 10:56:53;;;;;;;8.77;6.67;;;3.60;83.10;10.90;98967.00;;;;5034140;28;20210;-67
2020/12/03 11:01:44;;;;;;;8.80;6.20;;;3.60;83.20;11.00;98962.00;;;;5051920;28;20202;-67
2020/12/03 11:04:11;;;;;;;8.80;6.13;;;3.60;83.20;11.00;98963.00;;;;5050484;28;20212;-67
2020/12/03 11:06:36;;;;;;;9.25;6.05;;;3.50;83.10;11.10;98954.00;;;;5050500;28;20289;-67
2020/12/03 11:09:03;;;;;;;9.63;6.27;;;3.60;83.10;11.20;98950.00;;;;5050408;28;20210;-67
2020/12/03 11:11:35;;;;;;;10.38;7.15;;;3.60;83.10;11.10;98942.00;;;;5050561;28;20463;-68
2020/12/03 11:14:01;;;;;;;9.13;6.20;;;3.60;83.10;10.90;98938.00;;;;5032879;28;20189;-67
2020/12/03 11:16:31;;;;;;;11.30;6.93;;;3.60;83.10;11.10;98953.00;;;;5049794;28;20221;-67
2020/12/03 11:18:59;;;;;;;10.65;7.03;;;3.60;83.10;11.00;98942.00;;;;5050311;28;20201;-67
2020/12/03 11:21:27;;;;;;;8.90;6.43;;;3.60;83.00;11.00;98943.00;;;;5050816;28;20216;-67
2020/12/03 11:24:11;;;;;;;8.50;6.20;;;3.60;83.10;11.00;98933.00;;;;5057033;28;20173;-67